Time;durP1;ratioP1;P1;durP2;ratioP2;P2;SDS_P1;SDS_P2;PMS_P1;PMS_P2;Temp;Humidity;BMP_temperature;BMP_pressure;BME280_temperature;BME280_humidity;BME280_pressure;Samples;Min_cycle;Max_cycle;Signal;HPM_P1;HPM_P2
2021/12/26 00:00:59;;;;;;;5.90;2.65;;;;;;;-7.98;88.68;101412.69;2072622;28;29239;-63
2021/12/26 00:02:01;;;;;;;8.55;2.10;;;;;;;-7.97;88.13;101414.44;2072094;28;44477;-63
2021/12/26 00:03:03;;;;;;;6.70;2.28;;;;;;;-7.96;88.51;101403.28;2072645;28;44515;-64
2021/12/26 00:04:05;;;;;;;5.53;2.33;;;;;;;-7.99;88.07;101401.38;2072031;28;45411;-63
2021/12/26 00:05:08;;;;;;;8.65;2.53;;;;;;;-7.98;87.87;101400.56;2072237;28;46269;-63
2021/12/26 00:06:21;;;;;;;6.35;2.42;;;;;;;-7.95;88.14;101402.44;2071483;28;44649;-63
2021/12/26 00:07:27;;;;;;;5.85;2.28;;;;;;;-7.97;88.44;101409.25;2072928;28;27768;-62
2021/12/26 00:08:29;;;;;;;6.00;2.13;;;;;;;-7.97;88.10;101410.16;2071679;28;44650;-63
2021/12/26 00:09:30;;;;;;;4.95;1.88;;;;;;;-8.06;88.59;101404.41;2071955;28;45347;-63
2021/12/26 00:10:32;;;;;;;7.35;2.25;;;;;;;-8.08;88.17;101416.41;2072645;28;28165;-63
2021/12/26 00:11:34;;;;;;;6.32;2.47;;;;;;;-8.04;88.55;101418.38;2072546;28;44616;-63
2021/12/26 00:12:38;;;;;;;5.97;2.10;;;;;;;-8.08;88.58;101413.81;2071754;28;45533;-63
2021/12/26 00:13:40;;;;;;;8.25;2.40;;;;;;;-8.09;88.47;101409.44;2063994;28;45862;-63
2021/12/26 00:14:46;;;;;;;5.03;2.47;;;;;;;-8.15;88.35;101412.53;2065231;28;21047;-63
2021/12/26 00:15:48;;;;;;;5.72;2.22;;;;;;;-8.16;88.01;101418.56;2064852;28;26742;-63
2021/12/26 00:16:50;;;;;;;9.88;2.50;;;;;;;-8.17;88.70;101419.34;2063909;28;43263;-63
2021/12/26 00:17:52;;;;;;;7.82;2.60;;;;;;;-8.19;88.34;101426.16;2064396;28;43430;-63
2021/12/26 00:18:54;;;;;;;9.85;2.22;;;;;;;-8.20;88.43;101426.97;2064597;28;36388;-63
2021/12/26 00:19:59;;;;;;;7.72;2.28;;;;;;;-8.23;87.89;101418.09;2066276;28;44490;-63
2021/12/26 00:21:02;;;;;;;5.80;1.98;;;;;;;-8.27;88.36;101422.22;2072013;28;43970;-64
2021/12/26 00:22:04;;;;;;;10.40;2.13;;;;;;;-8.29;89.64;101416.94;2071711;28;45589;-63
2021/12/26 00:23:07;;;;;;;6.35;2.25;;;;;;;-8.29;89.45;101426.41;2071705;28;45479;-63
2021/12/26 00:24:09;;;;;;;5.85;2.40;;;;;;;-8.30;89.61;101424.63;2072554;28;29595;-63
2021/12/26 00:25:12;;;;;;;3.95;2.15;;;;;;;-8.29;88.73;101422.13;2072250;28;44813;-63
2021/12/26 00:26:14;;;;;;;5.72;2.38;;;;;;;-8.25;89.84;101423.22;2072075;28;43970;-63
2021/12/26 00:27:19;;;;;;;7.20;2.50;;;;;;;-8.31;89.39;101428.00;2072370;28;44873;-63
2021/12/26 00:28:23;;;;;;;7.85;2.35;;;;;;;-8.37;89.74;101425.06;2071031;28;42702;-63
2021/12/26 00:29:26;;;;;;;5.55;2.03;;;;;;;-8.39;89.21;101427.56;2072086;28;20304;-63
2021/12/26 00:30:30;;;;;;;4.32;2.08;;;;;;;-8.41;89.58;101426.56;2071855;28;21165;-63
2021/12/26 00:31:33;;;;;;;6.45;2.08;;;;;;;-8.46;89.45;101426.31;2072420;28;20395;-63
2021/12/26 00:32:37;;;;;;;6.65;2.05;;;;;;;-8.46;89.78;101420.22;2072194;28;20230;-63
2021/12/26 00:33:41;;;;;;;5.80;2.20;;;;;;;-8.50;89.40;101416.53;2063995;28;32986;-63
2021/12/26 00:34:44;;;;;;;7.00;2.65;;;;;;;-8.53;89.88;101426.72;2071088;28;42392;-63
2021/12/26 00:35:46;;;;;;;5.80;2.47;;;;;;;-8.52;90.05;101423.34;2072342;28;43861;-63
2021/12/26 00:36:48;;;;;;;5.88;3.00;;;;;;;-8.43;90.50;101419.50;2071944;28;20226;-64
2021/12/26 00:37:50;;;;;;;9.18;2.28;;;;;;;-8.47;90.14;101423.59;2062694;28;45966;-63
2021/12/26 00:38:52;;;;;;;6.97;2.67;;;;;;;-8.51;89.92;101422.53;2063490;28;28598;-63
2021/12/26 00:39:54;;;;;;;7.93;2.85;;;;;;;-8.53;90.95;101421.53;2063347;28;46259;-63
2021/12/26 00:40:56;;;;;;;6.70;2.72;;;;;;;-8.56;90.37;101418.78;2072020;28;38679;-63
2021/12/26 00:41:57;;;;;;;7.22;2.83;;;;;;;-8.57;90.45;101416.97;2071945;28;44121;-63
2021/12/26 00:43:01;;;;;;;7.13;2.70;;;;;;;-8.56;90.58;101423.03;2073016;28;20245;-63
2021/12/26 00:44:07;;;;;;;9.15;2.60;;;;;;;-8.57;90.02;101418.69;2072236;28;20361;-63
2021/12/26 00:45:09;;;;;;;6.88;2.60;;;;;;;-8.59;90.41;101410.78;2063368;28;44187;-64
2021/12/26 00:46:13;;;;;;;5.38;3.20;;;;;;;-8.53;89.58;101411.16;2064677;28;20410;-63
2021/12/26 00:47:15;;;;;;;7.68;2.60;;;;;;;-8.48;90.76;101404.53;2071692;28;44319;-63
2021/12/26 00:48:17;;;;;;;7.47;3.10;;;;;;;-8.49;90.23;101405.38;2071430;28;43517;-63
2021/12/26 00:49:23;;;;;;;5.60;2.50;;;;;;;-8.49;89.56;101396.66;2073107;28;21169;-63
2021/12/26 00:50:30;;;;;;;4.97;2.65;;;;;;;-8.54;90.16;101396.41;2072064;28;45209;-63
2021/12/26 00:51:31;;;;;;;8.23;3.30;;;;;;;-8.47;89.93;101395.97;2072338;28;20227;-63
2021/12/26 00:52:33;;;;;;;5.80;2.25;;;;;;;-8.37;89.80;101394.78;2071251;28;42785;-63
2021/12/26 00:53:35;;;;;;;6.20;2.50;;;;;;;-8.46;89.33;101392.56;2071967;28;43887;-63
2021/12/26 00:54:37;;;;;;;4.53;2.25;;;;;;;-8.40;90.19;101396.28;2072102;28;42226;-63
2021/12/26 00:55:39;;;;;;;4.18;2.55;;;;;;;-8.46;90.13;101392.56;2072246;28;45343;-63
2021/12/26 00:56:41;;;;;;;7.70;2.47;;;;;;;-8.43;89.53;101394.47;2071029;28;45578;-63
2021/12/26 00:57:46;;;;;;;5.93;2.58;;;;;;;-8.42;89.50;101387.56;2062927;28;45303;-63
2021/12/26 00:58:48;;;;;;;5.40;2.35;;;;;;;-8.38;89.36;101385.22;2064152;28;20263;-63
2021/12/26 00:59:51;;;;;;;7.10;2.40;;;;;;;-8.27;88.67;101380.66;2064323;28;20282;-63
2021/12/26 01:00:54;;;;;;;6.78;2.10;;;;;;;-8.27;88.76;101389.34;2072291;28;20257;-63
2021/12/26 01:01:56;;;;;;;6.70;2.50;;;;;;;-8.28;88.28;101382.34;2072135;28;20242;-63
2021/12/26 01:03:00;;;;;;;6.90;2.13;;;;;;;-8.30;87.74;101383.06;2071529;28;41477;-62
2021/12/26 01:04:03;;;;;;;8.65;2.22;;;;;;;-8.31;88.43;101379.59;2071221;28;20242;-63
2021/12/26 01:05:10;;;;;;;5.57;2.30;;;;;;;-8.30;87.79;101383.97;2064212;28;20361;-62
2021/12/26 01:06:12;;;;;;;6.65;2.30;;;;;;;-8.30;88.02;101385.66;2064237;28;20223;-62
2021/12/26 01:07:45;;;;;;;4.50;1.88;;;;;;;-8.26;88.17;101382.44;2063793;28;20219;-63
2021/12/26 01:08:42;;;;;;;8.23;2.45;;;;;;;-8.28;87.97;101381.47;2063836;28;20314;-63
2021/12/26 01:09:49;;;;;;;5.30;2.17;;;;;;;-8.30;87.31;101378.75;2064607;28;20282;-63
2021/12/26 01:11:06;;;;;;;6.78;2.25;;;;;;;-8.36;87.73;101373.22;2064336;28;20250;-63
2021/12/26 01:12:15;;;;;;;5.32;2.40;;;;;;;-8.31;87.80;101378.66;2066171;28;20278;-63
2021/12/26 01:13:43;;;;;;;7.15;2.45;;;;;;;-8.29;87.30;101383.16;2064732;28;20360;-63
2021/12/26 01:14:57;;;;;;;4.13;1.80;;;;;;;-8.26;87.53;101378.13;2076180;28;20386;-63
2021/12/26 01:16:14;;;;;;;6.40;2.03;;;;;;;-8.35;86.75;101374.09;2071885;28;20262;-63
2021/12/26 01:17:21;;;;;;;6.32;1.90;;;;;;;-8.31;87.21;101378.66;2072188;28;20913;-63
2021/12/26 01:18:51;;;;;;;6.57;1.90;;;;;;;-8.29;86.96;101369.25;2071091;28;20245;-63
2021/12/26 01:19:54;;;;;;;3.42;1.55;;;;;;;-8.27;86.48;101372.88;2063970;28;20275;-63
2021/12/26 01:21:05;;;;;;;6.43;2.23;;;;;;;-8.20;85.37;101368.91;2064293;28;21158;-63
2021/12/26 01:22:07;;;;;;;3.25;1.90;;;;;;;-8.27;85.78;101371.16;2063361;28;20337;-63
2021/12/26 01:23:13;;;;;;;5.28;1.90;;;;;;;-8.19;84.52;101371.63;2064186;28;20235;-63
2021/12/26 01:24:15;;;;;;;4.18;1.90;;;;;;;-8.30;85.20;101381.34;2063820;28;21081;-62
2021/12/26 01:25:17;;;;;;;5.00;2.00;;;;;;;-8.14;85.05;101380.59;2058547;28;26975;-63
2021/12/26 01:26:24;;;;;;;5.15;1.80;;;;;;;-8.19;85.20;101370.72;2063804;28;20219;-62
2021/12/26 01:27:27;;;;;;;3.08;1.50;;;;;;;-8.17;84.22;101377.78;2063481;28;39384;-62
2021/12/26 01:28:31;;;;;;;7.55;1.77;;;;;;;-8.09;83.51;101378.28;2063848;28;20270;-63
2021/12/26 01:29:39;;;;;;;4.70;2.20;;;;;;;-8.11;83.74;101375.56;2063801;28;20243;-63
2021/12/26 01:30:42;;;;;;;5.13;1.80;;;;;;;-8.18;83.64;101373.41;2055969;28;20338;-63
2021/12/26 01:31:43;;;;;;;5.55;1.77;;;;;;;-8.18;83.90;101380.28;2055877;28;20292;-63
2021/12/26 01:33:23;;;;;;;5.18;2.13;;;;;;;-8.22;84.43;101371.41;2063829;28;20235;-63
2021/12/26 01:34:34;;;;;;;5.43;1.80;;;;;;;-8.25;84.79;101374.75;2063193;28;20254;-63
2021/12/26 01:35:58;;;;;;;5.63;2.25;;;;;;;-8.23;84.79;101374.84;2069012;28;21158;-63
2021/12/26 01:37:14;;;;;;;5.03;1.80;;;;;;;-8.26;85.71;101372.94;2072626;28;20262;-63
2021/12/26 01:38:52;;;;;;;5.35;2.13;;;;;;;-8.25;84.85;101369.56;2055213;28;20378;-63
2021/12/26 01:40:15;;;;;;;4.20;1.95;;;;;;;-8.29;85.93;101372.78;2054451;28;20240;-62
2021/12/26 01:41:30;;;;;;;6.63;2.08;;;;;;;-8.30;85.36;101368.38;2063657;28;20982;-63
2021/12/26 01:42:52;;;;;;;5.82;2.05;;;;;;;-8.29;85.69;101371.84;2074446;28;20332;-63
2021/12/26 01:44:12;;;;;;;4.30;2.08;;;;;;;-8.27;86.35;101376.34;2077924;28;20288;-64
2021/12/26 01:45:23;;;;;;;5.53;2.42;;;;;;;-8.28;85.82;101371.06;2071386;28;20304;-63
2021/12/26 01:46:40;;;;;;;6.03;2.22;;;;;;;-8.32;85.56;101366.50;2064516;28;20375;-64
2021/12/26 01:47:45;;;;;;;5.45;2.22;;;;;;;-8.27;86.10;101370.28;2063915;28;20346;-63
2021/12/26 01:48:47;;;;;;;8.27;2.50;;;;;;;-8.33;86.42;101377.69;2071779;28;21082;-64
2021/12/26 01:49:49;;;;;;;5.63;2.38;;;;;;;-8.34;86.35;101376.78;2071613;28;34109;-64
2021/12/26 01:50:53;;;;;;;6.45;2.33;;;;;;;-8.40;86.99;101376.41;2071759;28;20316;-65
2021/12/26 01:52:00;;;;;;;5.75;2.08;;;;;;;-8.37;87.08;101370.53;2063165;28;20274;-64
2021/12/26 01:53:05;;;;;;;3.42;1.45;;;;;;;-8.26;87.05;101388.53;2071696;28;20226;-64
2021/12/26 01:54:10;;;;;;;6.25;2.90;;;;;;;-8.31;85.88;101381.25;2071554;28;20260;-64
2021/12/26 01:55:24;;;;;;;7.57;2.20;;;;;;;-8.29;86.93;101384.84;2063867;28;28694;-64
2021/12/26 01:56:26;;;;;;;5.85;2.60;;;;;;;-8.34;87.02;101381.09;2062475;28;44543;-64
2021/12/26 01:57:28;;;;;;;8.52;2.72;;;;;;;-8.36;86.63;101369.69;2063129;28;20700;-64
2021/12/26 01:58:31;;;;;;;7.45;3.22;;;;;;;-8.39;86.54;101375.63;2063265;28;32717;-63
2021/12/26 01:59:41;;;;;;;7.72;2.70;;;;;;;-8.36;86.50;101382.69;2064394;28;20234;-63
2021/12/26 02:00:55;;;;;;;6.32;2.80;;;;;;;-8.35;87.00;101377.59;2063740;28;20377;-65
2021/12/26 02:01:59;;;;;;;5.68;2.58;;;;;;;-8.41;87.68;101376.34;2065049;28;21222;-63
2021/12/26 02:03:02;;;;;;;6.00;2.65;;;;;;;-8.38;87.28;101369.63;2063539;28;21080;-63
2021/12/26 02:04:04;;;;;;;6.85;2.40;;;;;;;-8.40;86.81;101365.13;2055124;28;38162;-65
2021/12/26 02:05:08;;;;;;;7.23;2.30;;;;;;;-8.34;87.79;101366.41;2063401;28;20281;-64
2021/12/26 02:06:11;;;;;;;6.38;2.80;;;;;;;-8.34;86.96;101370.72;2063905;28;20230;-64
2021/12/26 02:07:24;;;;;;;7.38;2.33;;;;;;;-8.35;87.57;101368.91;2066766;28;21146;-64
2021/12/26 02:08:28;;;;;;;6.10;2.72;;;;;;;-8.40;87.54;101366.03;2063455;28;20401;-64
2021/12/26 02:09:30;;;;;;;5.22;2.53;;;;;;;-8.39;87.78;101366.94;2063723;28;20246;-64
2021/12/26 02:10:35;;;;;;;7.03;2.53;;;;;;;-8.40;88.34;101355.63;2062989;28;20223;-64
2021/12/26 02:11:37;;;;;;;8.00;3.50;;;;;;;-8.38;87.73;101347.94;2055660;28;20220;-65
2021/12/26 02:12:41;;;;;;;7.13;3.13;;;;;;;-8.35;87.80;101362.00;2060678;28;20251;-65
2021/12/26 02:13:43;;;;;;;4.95;2.67;;;;;;;-8.32;87.23;101358.72;2063602;28;20271;-64
2021/12/26 02:14:45;;;;;;;4.53;2.63;;;;;;;-8.36;87.65;101354.13;2063681;28;20232;-63
2021/12/26 02:16:11;;;;;;;7.80;2.85;;;;;;;-8.31;86.75;101352.69;2066665;28;20316;-64
2021/12/26 02:17:16;;;;;;;7.75;3.05;;;;;;;-8.42;87.42;101357.28;2064383;28;20227;-64
2021/12/26 02:18:20;;;;;;;5.25;2.42;;;;;;;-8.39;86.93;101356.56;2063983;28;20235;-65
2021/12/26 02:19:22;;;;;;;4.43;2.70;;;;;;;-8.41;87.47;101359.06;2064017;28;20310;-64
2021/12/26 02:22:10;;;;;;;6.95;2.72;;;;;;;-8.40;87.83;101349.56;2071530;28;20263;-64
2021/12/26 02:23:22;;;;;;;5.97;2.55;;;;;;;-8.44;87.29;101351.09;2064077;28;44367;-64
2021/12/26 02:28:06;;;;;;;;;;;;;;;-8.50;87.54;101348.16;2072078;28;27756;-64
2021/12/26 02:29:08;;;;;;;5.17;2.37;;;;;;;-8.50;88.26;101348.16;2070802;28;34911;-64
2021/12/26 02:30:16;;;;;;;4.88;2.53;;;;;;;-8.53;88.67;101348.84;2063454;28;20318;-65
2021/12/26 02:31:21;;;;;;;5.55;2.90;;;;;;;-8.50;88.25;101342.97;2064814;28;20384;-65
2021/12/26 02:32:23;;;;;;;6.37;2.80;;;;;;;-8.52;88.65;101353.25;2063004;28;21200;-63
2021/12/26 02:33:28;;;;;;;4.72;2.80;;;;;;;-8.55;87.86;101340.06;2063025;28;39139;-63
2021/12/26 02:34:30;;;;;;;5.93;3.22;;;;;;;-8.55;88.29;101355.66;2063581;28;20266;-64
2021/12/26 02:35:34;;;;;;;6.88;3.20;;;;;;;-8.58;88.57;101345.06;2070614;28;37485;-63
2021/12/26 02:36:36;;;;;;;7.72;3.45;;;;;;;-8.61;88.28;101349.19;2063871;28;20354;-64
2021/12/26 02:37:40;;;;;;;4.82;2.90;;;;;;;-8.58;88.54;101342.47;2055337;28;20578;-64
2021/12/26 02:38:43;;;;;;;7.97;2.83;;;;;;;-8.58;89.17;101342.47;2064325;28;20258;-63
2021/12/26 02:39:47;;;;;;;5.77;3.10;;;;;;;-8.64;87.87;101340.41;2071405;28;20380;-65
2021/12/26 02:40:52;;;;;;;6.22;3.17;;;;;;;-8.61;88.21;101346.59;2070955;28;20289;-64
2021/12/26 02:41:54;;;;;;;9.20;3.13;;;;;;;-8.61;88.83;101339.72;2079570;28;20320;-65
2021/12/26 02:42:58;;;;;;;5.53;3.25;;;;;;;-8.67;88.12;101341.91;2071660;28;20257;-65
2021/12/26 02:44:02;;;;;;;6.07;3.40;;;;;;;-8.65;89.04;101337.72;2070712;28;27043;-64
2021/12/26 02:45:08;;;;;;;6.47;3.08;;;;;;;-8.67;89.17;101342.84;2064398;28;21071;-63
2021/12/26 02:46:13;;;;;;;7.10;3.50;;;;;;;-8.65;88.87;101343.81;2063529;28;20223;-64
2021/12/26 02:47:42;;;;;;;7.90;3.10;;;;;;;-8.65;88.11;101338.63;2064084;28;20263;-64
2021/12/26 02:48:44;;;;;;;9.05;3.33;;;;;;;-8.66;88.71;101346.31;2062809;28;20247;-64
2021/12/26 02:49:49;;;;;;;8.88;3.30;;;;;;;-8.63;88.47;101341.34;2063995;28;20219;-65
2021/12/26 02:50:56;;;;;;;7.38;3.50;;;;;;;-8.67;88.98;101339.31;2063298;28;20390;-64
2021/12/26 02:52:00;;;;;;;8.57;2.95;;;;;;;-8.64;89.03;101349.91;2064497;28;20337;-65
2021/12/26 02:53:06;;;;;;;9.65;3.45;;;;;;;-8.68;89.36;101342.75;2070203;28;20317;-63
2021/12/26 02:54:07;;;;;;;9.00;3.88;;;;;;;-8.72;88.94;101340.75;2063635;28;21310;-64
2021/12/26 02:55:11;;;;;;;6.47;3.67;;;;;;;-8.73;88.67;101339.84;2070946;28;42503;-64
2021/12/26 02:56:14;;;;;;;7.63;3.80;;;;;;;-8.71;88.88;101337.34;2071232;28;20296;-64
2021/12/26 02:57:15;;;;;;;8.45;3.72;;;;;;;-8.72;89.26;101336.47;2071719;28;21101;-63
2021/12/26 02:58:18;;;;;;;9.50;4.77;;;;;;;-8.74;90.00;101327.69;2071030;28;46299;-64
2021/12/26 02:59:22;;;;;;;8.43;4.25;;;;;;;-8.75;88.55;101325.91;2073389;28;20243;-64
2021/12/26 03:00:30;;;;;;;9.30;4.00;;;;;;;-8.77;89.20;101331.78;2072962;28;20297;-64
2021/12/26 03:01:32;;;;;;;6.80;4.15;;;;;;;-8.75;89.07;101325.00;2071302;28;20248;-64
2021/12/26 03:02:44;;;;;;;7.97;4.00;;;;;;;-8.77;89.62;101331.78;2072533;28;20226;-64
2021/12/26 03:03:47;;;;;;;7.87;4.60;;;;;;;-8.79;89.82;101328.19;2064250;28;21174;-65
2021/12/26 03:04:49;;;;;;;8.30;4.53;;;;;;;-8.78;89.10;101324.81;2064910;28;21212;-64
2021/12/26 03:06:01;;;;;;;9.77;4.28;;;;;;;-8.79;89.00;101323.00;2072165;28;42879;-64
2021/12/26 03:07:04;;;;;;;7.80;4.15;;;;;;;-8.82;89.20;101325.44;2065295;28;21702;-64
2021/12/26 03:08:10;;;;;;;9.33;4.60;;;;;;;-8.87;88.83;101319.94;2064525;28;42985;-64
2021/12/26 03:09:12;;;;;;;6.23;3.80;;;;;;;-8.87;89.56;101319.94;2063942;28;46590;-64
2021/12/26 03:10:24;;;;;;;9.45;4.25;;;;;;;-8.88;89.91;101325.94;2064691;28;20258;-63
2021/12/26 03:11:26;;;;;;;9.15;3.95;;;;;;;-8.86;89.43;101320.06;2064732;28;21013;-64
2021/12/26 03:12:31;;;;;;;9.63;4.28;;;;;;;-8.89;89.17;101321.56;2058030;28;20374;-64
2021/12/26 03:13:33;;;;;;;7.57;3.83;;;;;;;-8.91;89.47;101318.88;2065031;28;21150;-64
2021/12/26 03:14:36;;;;;;;10.45;4.50;;;;;;;-8.92;89.57;101323.97;2072213;28;33580;-64
2021/12/26 03:15:41;;;;;;;7.80;3.88;;;;;;;-8.93;88.37;101329.97;2073072;28;21115;-65
2021/12/26 03:16:52;;;;;;;7.47;4.00;;;;;;;-8.90;89.19;101319.75;2064866;28;20247;-64
2021/12/26 03:17:54;;;;;;;6.57;3.13;;;;;;;-8.90;88.61;101325.88;2064283;28;38941;-63
2021/12/26 03:19:00;;;;;;;8.45;4.03;;;;;;;-8.79;89.34;101323.00;2064307;28;30585;-63
2021/12/26 03:20:13;;;;;;;13.27;4.70;;;;;;;-8.79;88.24;101316.13;2072595;28;21185;-63
2021/12/26 03:21:15;;;;;;;8.63;4.13;;;;;;;-8.85;89.20;101321.81;2072287;28;32837;-64
2021/12/26 03:22:18;;;;;;;7.88;3.80;;;;;;;-8.86;88.63;101327.84;2071861;28;44022;-64
2021/12/26 03:23:25;;;;;;;7.55;4.10;;;;;;;-8.76;89.13;101324.09;2071881;28;44906;-64
2021/12/26 03:24:27;;;;;;;8.65;3.75;;;;;;;-8.72;87.95;101325.16;2065334;28;20227;-64
2021/12/26 03:25:34;;;;;;;6.43;3.60;;;;;;;-8.69;88.16;101315.00;2064590;28;20263;-64
2021/12/26 03:26:36;;;;;;;9.27;4.13;;;;;;;-8.76;88.20;101318.91;2065357;28;20255;-64
2021/12/26 03:27:39;;;;;;;9.57;4.47;;;;;;;-8.79;88.39;101323.94;2064804;28;21103;-65
2021/12/26 03:28:40;;;;;;;7.40;4.23;;;;;;;-8.76;89.00;101323.19;2072540;28;21358;-63
2021/12/26 03:29:42;;;;;;;8.07;4.30;;;;;;;-8.76;88.65;101325.78;2072705;28;20250;-64
2021/12/26 03:30:51;;;;;;;11.73;4.50;;;;;;;-8.78;88.53;101320.50;2065148;28;20333;-64
2021/12/26 03:31:53;;;;;;;8.50;4.63;;;;;;;-8.83;88.38;101321.91;2064940;28;20302;-64
2021/12/26 03:32:58;;;;;;;6.80;4.22;;;;;;;-8.79;88.86;101318.75;2072203;28;20225;-64
2021/12/26 03:34:03;;;;;;;9.43;4.37;;;;;;;-8.77;89.28;101326.59;2064578;28;20339;-64
2021/12/26 03:35:06;;;;;;;9.50;4.50;;;;;;;-8.79;88.29;101320.41;2063994;28;25643;-65
2021/12/26 03:36:08;;;;;;;8.82;4.20;;;;;;;-8.77;88.29;101322.31;2064276;28;20231;-63
2021/12/26 03:37:12;;;;;;;6.97;4.37;;;;;;;-8.78;88.64;101322.22;2055667;28;47386;-64
2021/12/26 03:38:17;;;;;;;9.10;4.47;;;;;;;-8.87;88.04;101323.44;2063568;28;20230;-62
2021/12/26 03:39:24;;;;;;;6.15;4.20;;;;;;;-8.90;88.07;101327.53;2072743;28;20981;-64
2021/12/26 03:40:27;;;;;;;8.50;4.60;;;;;;;-8.87;89.37;101326.03;2072615;28;20046;-63
2021/12/26 03:41:29;;;;;;;7.90;4.22;;;;;;;-8.79;88.29;101323.94;2064850;28;20235;-64
2021/12/26 03:42:33;;;;;;;11.10;4.60;;;;;;;-8.84;88.39;101322.75;2064317;28;21073;-64
2021/12/26 03:43:35;;;;;;;9.88;4.97;;;;;;;-8.80;87.73;101323.81;2064712;28;21058;-64
2021/12/26 03:44:42;;;;;;;10.63;4.50;;;;;;;-8.82;87.98;101320.25;2064551;28;20254;-64
2021/12/26 03:45:49;;;;;;;7.20;4.23;;;;;;;-8.81;88.23;101325.50;2064768;28;28164;-64
2021/12/26 03:46:51;;;;;;;8.93;4.73;;;;;;;-8.76;87.79;101313.72;2065151;28;20234;-65
2021/12/26 03:47:53;;;;;;;11.67;4.50;;;;;;;-8.74;87.06;101317.31;2072847;28;20378;-64
2021/12/26 03:49:01;;;;;;;8.63;3.93;;;;;;;-8.78;88.46;101319.63;2080279;28;21260;-64
2021/12/26 03:50:08;;;;;;;9.65;4.63;;;;;;;-8.74;86.81;101311.22;2072651;28;20324;-65
2021/12/26 03:51:10;;;;;;;9.80;4.33;;;;;;;-8.77;87.37;101316.22;2065333;28;20310;-65
2021/12/26 03:52:12;;;;;;;7.93;4.75;;;;;;;-8.82;87.59;101320.25;2063688;28;20930;-64
2021/12/26 03:53:15;;;;;;;10.73;4.77;;;;;;;-8.78;86.91;101317.03;2064344;28;20278;-63
2021/12/26 03:54:20;;;;;;;10.73;4.80;;;;;;;-8.75;87.65;101319.81;2064523;28;21076;-63
2021/12/26 03:55:25;;;;;;;9.48;4.82;;;;;;;-8.84;87.90;101315.84;2072642;28;20273;-63
2021/12/26 03:56:28;;;;;;;10.50;4.75;;;;;;;-8.86;88.05;101320.06;2072393;28;20218;-64
2021/12/26 03:57:46;;;;;;;8.87;4.53;;;;;;;-8.88;88.06;101320.75;2065771;28;20298;-64
2021/12/26 03:58:51;;;;;;;8.13;4.38;;;;;;;-8.91;88.05;101318.88;2072583;28;20421;-64
2021/12/26 03:59:52;;;;;;;13.05;4.88;;;;;;;-8.91;88.20;101318.88;2072457;28;20296;-64
2021/12/26 04:00:54;;;;;;;8.93;4.43;;;;;;;-8.95;88.31;101323.75;2064072;28;20267;-64
2021/12/26 04:01:57;;;;;;;9.50;4.32;;;;;;;-8.92;87.53;101322.25;2072709;28;20716;-63
2021/12/26 04:02:59;;;;;;;7.77;5.00;;;;;;;-8.97;88.14;101327.97;2072234;28;20237;-64
2021/12/26 04:04:03;;;;;;;9.50;4.93;;;;;;;-8.96;87.41;101327.19;2064549;28;20270;-64
2021/12/26 04:05:05;;;;;;;9.10;4.77;;;;;;;-8.98;88.94;101324.47;2064536;28;29244;-64
2021/12/26 04:06:08;;;;;;;9.20;4.80;;;;;;;-9.05;88.21;101322.31;2071281;28;27258;-63
2021/12/26 04:07:16;;;;;;;7.40;3.47;;;;;;;-9.03;88.18;101323.28;2064570;28;20381;-63
2021/12/26 04:08:19;;;;;;;10.73;4.53;;;;;;;-9.07;88.93;101314.44;2057374;28;20900;-65
2021/12/26 04:09:21;;;;;;;7.33;4.50;;;;;;;-9.04;88.38;101313.75;2064852;28;21155;-64
2021/12/26 04:10:23;;;;;;;8.05;4.63;;;;;;;-9.11;88.22;101314.16;2055803;28;20236;-63
2021/12/26 04:11:25;;;;;;;11.33;4.60;;;;;;;-9.13;88.73;101315.72;2056315;28;20327;-64
2021/12/26 04:12:34;;;;;;;9.37;4.80;;;;;;;-9.16;88.70;101315.56;2055955;28;21020;-66
2021/12/26 04:13:41;;;;;;;7.40;4.37;;;;;;;-9.18;88.60;101323.25;2058451;28;21186;-64
2021/12/26 04:14:43;;;;;;;7.77;4.50;;;;;;;-9.18;89.00;101322.38;2056399;28;20276;-64
2021/12/26 04:15:45;;;;;;;8.90;4.77;;;;;;;-9.19;88.70;101317.97;2055940;28;20220;-64
2021/12/26 04:16:48;;;;;;;11.52;5.05;;;;;;;-9.21;89.12;101318.75;2056551;28;20363;-63
2021/12/26 04:17:56;;;;;;;10.48;4.43;;;;;;;-9.21;88.97;101313.56;2056268;28;20251;-63
2021/12/26 04:18:59;;;;;;;9.93;4.55;;;;;;;-9.20;89.72;101322.25;2056800;28;20278;-63
2021/12/26 04:20:01;;;;;;;8.00;4.22;;;;;;;-9.22;88.66;101316.09;2063818;28;29348;-64
2021/12/26 04:21:05;;;;;;;8.73;4.57;;;;;;;-9.25;88.67;101321.97;2055876;28;20839;-63
2021/12/26 04:22:13;;;;;;;10.20;4.55;;;;;;;-9.25;89.14;101323.66;2057074;28;20271;-64
2021/12/26 04:23:15;;;;;;;10.40;4.97;;;;;;;-9.22;89.05;101316.97;2055710;28;25727;-64
2021/12/26 04:24:18;;;;;;;8.27;5.03;;;;;;;-9.24;89.72;101315.97;2064525;28;20231;-63
2021/12/26 04:25:21;;;;;;;9.50;4.73;;;;;;;-9.25;88.74;101311.59;2064507;28;20381;-64
2021/12/26 04:26:23;;;;;;;11.15;4.93;;;;;;;-9.30;88.91;101327.66;2056316;28;21137;-63
2021/12/26 04:27:27;;;;;;;9.38;4.95;;;;;;;-9.26;89.48;101319.25;2056427;28;21220;-64
2021/12/26 04:28:29;;;;;;;9.73;5.20;;;;;;;-9.30;89.16;101325.94;2056298;28;20922;-64
2021/12/26 04:29:31;;;;;;;15.63;5.07;;;;;;;-9.29;89.43;101324.28;2056386;28;21113;-64
2021/12/26 04:30:33;;;;;;;11.17;5.13;;;;;;;-9.32;89.48;101322.38;2055989;28;20228;-64
2021/12/26 04:31:36;;;;;;;8.97;4.40;;;;;;;-9.25;89.00;101324.56;2064336;28;20350;-64
2021/12/26 04:32:39;;;;;;;9.53;4.87;;;;;;;-9.23;89.68;101320.34;2063522;28;20266;-63
2021/12/26 04:33:44;;;;;;;9.20;4.63;;;;;;;-9.24;89.37;101328.03;2064240;28;20333;-64
2021/12/26 04:34:47;;;;;;;8.25;4.15;;;;;;;-9.23;88.87;101317.75;2056074;28;20251;-63
2021/12/26 04:35:50;;;;;;;9.17;4.63;;;;;;;-9.23;89.09;101316.88;2048052;28;20268;-63
2021/12/26 04:36:53;;;;;;;12.03;5.50;;;;;;;-9.26;89.07;101308.91;2048687;28;20272;-65
2021/12/26 04:37:57;;;;;;;12.07;5.27;;;;;;;-9.28;89.69;101313.97;2055024;28;37049;-63
2021/12/26 04:38:59;;;;;;;9.47;4.53;;;;;;;-9.28;88.90;101319.16;2055774;28;21077;-63
2021/12/26 04:40:05;;;;;;;9.03;4.60;;;;;;;-9.28;88.72;101318.28;2048165;28;20245;-63
2021/12/26 04:41:18;;;;;;;11.82;4.47;;;;;;;-9.32;89.44;101319.78;2066173;28;20389;-64
2021/12/26 04:42:29;;;;;;;9.63;5.40;;;;;;;-9.28;89.32;101316.56;2069888;28;20339;-65
2021/12/26 04:43:50;;;;;;;8.63;5.00;;;;;;;-9.30;89.23;101318.16;2056101;28;20390;-65
2021/12/26 04:45:09;;;;;;;10.37;4.80;;;;;;;-9.31;88.63;101310.28;2049336;28;20260;-64
2021/12/26 04:46:29;;;;;;;7.67;4.43;;;;;;;-9.27;89.29;101315.78;2055924;28;20334;-64
2021/12/26 04:47:37;;;;;;;11.23;4.53;;;;;;;-9.25;88.32;101314.19;2057131;28;20264;-64
2021/12/26 04:48:43;;;;;;;9.87;4.40;;;;;;;-9.29;89.14;101312.19;2055739;28;21223;-64
2021/12/26 04:49:45;;;;;;;8.77;4.43;;;;;;;-9.29;89.05;101311.31;2056321;28;20412;-64
2021/12/26 04:50:49;;;;;;;9.87;4.63;;;;;;;-9.29;89.49;101314.78;2059755;28;20367;-63
2021/12/26 04:51:51;;;;;;;9.63;5.00;;;;;;;-9.30;89.05;101315.59;2055940;28;20278;-64
2021/12/26 04:52:55;;;;;;;11.07;5.03;;;;;;;-9.29;88.87;101312.19;2047777;28;21155;-64
2021/12/26 04:53:58;;;;;;;12.77;4.47;;;;;;;-9.28;88.87;101315.69;2056284;28;21427;-64
2021/12/26 04:55:02;;;;;;;13.73;4.90;;;;;;;-9.27;89.06;101313.19;2055939;28;20282;-64
2021/12/26 04:56:05;;;;;;;11.23;5.00;;;;;;;-9.27;89.10;101323.56;2047221;28;40957;-64
2021/12/26 04:57:07;;;;;;;12.37;4.93;;;;;;;-9.28;88.92;101313.09;2048021;28;33787;-64
2021/12/26 04:58:09;;;;;;;10.57;4.47;;;;;;;-9.28;88.65;101313.97;2047865;28;20454;-64
2021/12/26 04:59:11;;;;;;;10.13;4.60;;;;;;;-9.34;89.17;101317.91;2047802;28;42233;-64
2021/12/26 05:00:20;;;;;;;10.47;4.50;;;;;;;-9.35;89.32;101319.56;2056303;28;21120;-64
2021/12/26 05:01:22;;;;;;;10.50;4.60;;;;;;;-9.38;88.54;101315.88;2056790;28;20374;-64
2021/12/26 05:02:28;;;;;;;8.97;4.03;;;;;;;-9.35;89.00;101310.91;2055759;28;42380;-64
2021/12/26 05:03:31;;;;;;;8.85;4.40;;;;;;;-9.35;89.28;101314.38;2056469;28;20271;-64
2021/12/26 05:04:34;;;;;;;8.93;5.20;;;;;;;-9.37;88.87;101317.69;2055600;28;45278;-64
2021/12/26 05:05:36;;;;;;;8.20;3.97;;;;;;;-9.34;88.44;101313.59;2056129;28;20307;-64
2021/12/26 05:06:38;;;;;;;9.35;4.03;;;;;;;-9.39;89.36;101308.94;2055130;28;42262;-62
2021/12/26 05:07:42;;;;;;;8.97;4.13;;;;;;;-9.38;88.93;101310.72;2058047;28;44663;-64
2021/12/26 05:08:44;;;;;;;7.90;3.83;;;;;;;-9.42;89.04;101309.63;2063911;28;42613;-64
2021/12/26 05:09:46;;;;;;;11.73;4.60;;;;;;;-9.37;89.13;101303.03;2063185;28;43616;-64